VJT85 KIND-KDSM
Flight info
| Callsign | VJT85 |
|---|---|
| Flight time | N/A |
| Altitude | 40000 |
| Route | MEARZ7 BVT |
| Aircraft | CL60/M-SADE3FGHIJ3J4J7P2RWXY/HB1D1 |
Departure
| Time | N/A |
|---|---|
| Airport | Indianapolis International Airport (KIND) |
Arrival
| Time | 2026-05-07 16:28 |
|---|---|
| Airport | Des Moines International Airport (KDSM) |
| Time | Latitude | Longitude | Altitude | Speed | Heading |
|---|---|---|---|---|---|
| 2026-05-07 16:03 | 41.35848 | -91.52702 | 31154 ft | 344 kts | 283° |
| 2026-05-07 16:03 | 41.36361 | -91.55943 | 30669 ft | 341 kts | 283° |
| 2026-05-07 16:03 | 41.36845 | -91.58999 | 30228 ft | 337 kts | 283° |
| 2026-05-07 16:03 | 41.37323 | -91.62028 | 29771 ft | 333 kts | 283° |
| 2026-05-07 16:04 | 41.37797 | -91.65032 | 29344 ft | 331 kts | 283° |
| 2026-05-07 16:04 | 41.38268 | -91.68024 | 28895 ft | 329 kts | 283° |
| 2026-05-07 16:04 | 41.38744 | -91.71055 | 28461 ft | 326 kts | 283° |
| 2026-05-07 16:04 | 41.39194 | -91.73927 | 28029 ft | 324 kts | 283° |
| 2026-05-07 16:05 | 41.39663 | -91.76921 | 27594 ft | 322 kts | 283° |
| 2026-05-07 16:05 | 41.40121 | -91.79851 | 27160 ft | 321 kts | 283° |
| 2026-05-07 16:05 | 41.40577 | -91.82774 | 26734 ft | 319 kts | 283° |
| 2026-05-07 16:05 | 41.41031 | -91.85690 | 26307 ft | 317 kts | 283° |
| 2026-05-07 16:06 | 41.41409 | -91.88124 | 25958 ft | 315 kts | 283° |
| 2026-05-07 16:06 | 41.41911 | -91.91365 | 25471 ft | 314 kts | 283° |
| 2026-05-07 16:06 | 41.42348 | -91.94188 | 25071 ft | 312 kts | 284° |
| 2026-05-07 16:06 | 41.42782 | -91.96994 | 24660 ft | 310 kts | 284° |
| 2026-05-07 16:07 | 41.43219 | -91.99826 | 24237 ft | 308 kts | 284° |
| 2026-05-07 16:07 | 41.43385 | -92.00900 | 24070 ft | 307 kts | 284° |
| 2026-05-07 16:07 | 41.43657 | -92.02661 | 23820 ft | 305 kts | 284° |
| 2026-05-07 16:08 | 41.44087 | -92.05456 | 23437 ft | 304 kts | 283° |
| 2026-05-07 16:08 | 41.44508 | -92.08199 | 23013 ft | 303 kts | 284° |
| 2026-05-07 16:08 | 41.44928 | -92.10944 | 22611 ft | 302 kts | 284° |
| 2026-05-07 16:08 | 41.45347 | -92.13678 | 22214 ft | 300 kts | 284° |
| 2026-05-07 16:09 | 41.45765 | -92.16420 | 21808 ft | 300 kts | 284° |
| 2026-05-07 16:09 | 41.46177 | -92.19123 | 21423 ft | 300 kts | 284° |
| 2026-05-07 16:09 | 41.46590 | -92.21831 | 21022 ft | 300 kts | 284° |
| 2026-05-07 16:09 | 41.47002 | -92.24547 | 20610 ft | 298 kts | 284° |
| 2026-05-07 16:10 | 41.47412 | -92.27248 | 20236 ft | 298 kts | 284° |
| 2026-05-07 16:10 | 41.47825 | -92.29970 | 19829 ft | 298 kts | 284° |
| 2026-05-07 16:10 | 41.48229 | -92.32647 | 19440 ft | 297 kts | 284° |
| 2026-05-07 16:10 | 41.48644 | -92.35397 | 19035 ft | 296 kts | 284° |
| 2026-05-07 16:11 | 41.49050 | -92.38089 | 18635 ft | 297 kts | 284° |
| 2026-05-07 16:11 | 41.49459 | -92.40805 | 18243 ft | 295 kts | 284° |
| 2026-05-07 16:11 | 41.49861 | -92.43484 | 17858 ft | 295 kts | 284° |
| 2026-05-07 16:11 | 41.50262 | -92.46159 | 17469 ft | 294 kts | 284° |
| 2026-05-07 16:12 | 41.50661 | -92.48824 | 17084 ft | 294 kts | 284° |
| 2026-05-07 16:12 | 41.51063 | -92.51514 | 16698 ft | 294 kts | 284° |
| 2026-05-07 16:12 | 41.51461 | -92.54179 | 16301 ft | 293 kts | 284° |
| 2026-05-07 16:12 | 41.51860 | -92.56854 | 15919 ft | 293 kts | 284° |
| 2026-05-07 16:13 | 41.52256 | -92.59518 | 15559 ft | 292 kts | 283° |
| 2026-05-07 16:13 | 41.52651 | -92.62180 | 15448 ft | 293 kts | 283° |
| 2026-05-07 16:13 | 41.53047 | -92.64848 | 15084 ft | 297 kts | 283° |
| 2026-05-07 16:13 | 41.53448 | -92.67557 | 14516 ft | 296 kts | 282° |
| 2026-05-07 16:14 | 41.53850 | -92.70277 | 13975 ft | 292 kts | 282° |
| 2026-05-07 16:14 | 41.54234 | -92.72884 | 13579 ft | 288 kts | 282° |
| 2026-05-07 16:14 | 41.54624 | -92.75535 | 13216 ft | 289 kts | 282° |
| 2026-05-07 16:14 | 41.55012 | -92.78169 | 12807 ft | 290 kts | 282° |
| 2026-05-07 16:15 | 41.55397 | -92.80791 | 12428 ft | 288 kts | 282° |
| 2026-05-07 16:15 | 41.55759 | -92.83264 | 12062 ft | 287 kts | 282° |
| 2026-05-07 16:15 | 41.56154 | -92.85960 | 11663 ft | 285 kts | 282° |
| 2026-05-07 16:15 | 41.56532 | -92.88550 | 11277 ft | 274 kts | 282° |
| 2026-05-07 16:16 | 41.56889 | -92.91001 | 10981 ft | 264 kts | 282° |
| 2026-05-07 16:16 | 41.57233 | -92.93371 | 10593 ft | 260 kts | 282° |
| 2026-05-07 16:16 | 41.57572 | -92.95714 | 10252 ft | 254 kts | 281° |
| 2026-05-07 16:16 | 41.57905 | -92.98010 | 9920 ft | 249 kts | 282° |
| 2026-05-07 16:17 | 41.58237 | -93.00309 | 9582 ft | 244 kts | 282° |
| 2026-05-07 16:17 | 41.58554 | -93.02502 | 9266 ft | 240 kts | 281° |
| 2026-05-07 16:17 | 41.58871 | -93.04701 | 8945 ft | 238 kts | 281° |
| 2026-05-07 16:17 | 41.59181 | -93.06852 | 8636 ft | 236 kts | 281° |
| 2026-05-07 16:18 | 41.59489 | -93.08998 | 8314 ft | 233 kts | 281° |
| 2026-05-07 16:18 | 41.59791 | -93.11100 | 8037 ft | 230 kts | 281° |
| 2026-05-07 16:18 | 41.60095 | -93.13210 | 7721 ft | 229 kts | 281° |
| 2026-05-07 16:18 | 41.60395 | -93.15312 | 7405 ft | 225 kts | 281° |
| 2026-05-07 16:19 | 41.60686 | -93.17347 | 7102 ft | 220 kts | 281° |
| 2026-05-07 16:19 | 41.60974 | -93.19356 | 6819 ft | 217 kts | 281° |
| 2026-05-07 16:19 | 41.61255 | -93.21328 | 6546 ft | 215 kts | 281° |
| 2026-05-07 16:19 | 41.61533 | -93.23275 | 6263 ft | 211 kts | 281° |
| 2026-05-07 16:20 | 41.61801 | -93.25159 | 5972 ft | 205 kts | 281° |
| 2026-05-07 16:20 | 41.62064 | -93.27011 | 5724 ft | 205 kts | 281° |
| 2026-05-07 16:20 | 41.62331 | -93.28883 | 5421 ft | 203 kts | 280° |
| 2026-05-07 16:20 | 41.62592 | -93.30727 | 5169 ft | 201 kts | 280° |
| 2026-05-07 16:21 | 41.62847 | -93.32525 | 4901 ft | 197 kts | 280° |
| 2026-05-07 16:21 | 41.63099 | -93.34305 | 4651 ft | 195 kts | 280° |
| 2026-05-07 16:21 | 41.63349 | -93.36077 | 4384 ft | 192 kts | 281° |
| 2026-05-07 16:21 | 41.63596 | -93.37824 | 4132 ft | 190 kts | 281° |
| 2026-05-07 16:22 | 41.63837 | -93.39541 | 3876 ft | 188 kts | 281° |
| 2026-05-07 16:22 | 41.64078 | -93.41251 | 3631 ft | 185 kts | 281° |
| 2026-05-07 16:22 | 41.64312 | -93.42919 | 3386 ft | 183 kts | 281° |
| 2026-05-07 16:22 | 41.64502 | -93.44590 | 3138 ft | 179 kts | 271° |
| 2026-05-07 16:23 | 41.64144 | -93.46161 | 3052 ft | 180 kts | 242° |
| 2026-05-07 16:23 | 41.63419 | -93.47517 | 3060 ft | 176 kts | 237° |
| 2026-05-07 16:23 | 41.62701 | -93.48803 | 3065 ft | 170 kts | 237° |
| 2026-05-07 16:23 | 41.62011 | -93.50063 | 3064 ft | 165 kts | 237° |
| 2026-05-07 16:24 | 41.61348 | -93.51276 | 3059 ft | 159 kts | 237° |
| 2026-05-07 16:24 | 41.60699 | -93.52462 | 3050 ft | 155 kts | 237° |
| 2026-05-07 16:24 | 41.60065 | -93.53616 | 2960 ft | 153 kts | 237° |
| 2026-05-07 16:24 | 41.59441 | -93.54750 | 2759 ft | 147 kts | 236° |
| 2026-05-07 16:25 | 41.58837 | -93.55853 | 2612 ft | 147 kts | 236° |
| 2026-05-07 16:25 | 41.58264 | -93.56899 | 2472 ft | 131 kts | 236° |
| 2026-05-07 16:25 | 41.57735 | -93.57865 | 2314 ft | 129 kts | 236° |
| 2026-05-07 16:25 | 41.57214 | -93.58831 | 2116 ft | 128 kts | 236° |
| 2026-05-07 16:26 | 41.56698 | -93.59796 | 1943 ft | 127 kts | 235° |
| 2026-05-07 16:26 | 41.56179 | -93.60743 | 1779 ft | 127 kts | 234° |
| 2026-05-07 16:26 | 41.55651 | -93.61682 | 1593 ft | 126 kts | 233° |
| 2026-05-07 16:26 | 41.55131 | -93.62621 | 1421 ft | 127 kts | 234° |
| 2026-05-07 16:27 | 41.54604 | -93.63583 | 1255 ft | 128 kts | 234° |
| 2026-05-07 16:27 | 41.54083 | -93.64534 | 1107 ft | 124 kts | 234° |
| 2026-05-07 16:27 | 41.53569 | -93.65467 | 953 ft | 118 kts | 233° |
| 2026-05-07 16:27 | 41.53130 | -93.66252 | 919 ft | 93 kts | 234° |
| 2026-05-07 16:28 | 41.52831 | -93.66810 | 904 ft | 47 kts | 233° |
| 2026-05-07 16:28 | 41.52734 | -93.66991 | 904 ft | 13 kts | 236° |
| 2026-05-07 16:28 | 41.52669 | -93.67010 | 906 ft | 10 kts | 150° |
| 2026-05-07 16:28 | 41.52642 | -93.66933 | 908 ft | 9 kts | 79° |
| 2026-05-07 16:29 | 41.52682 | -93.66841 | 908 ft | 13 kts | 57° |
| 2026-05-07 16:29 | 41.52744 | -93.66722 | 908 ft | 17 kts | 44° |
| 2026-05-07 16:29 | 41.52807 | -93.66617 | 909 ft | 18 kts | 54° |
| 2026-05-07 16:29 | 41.52889 | -93.66457 | 913 ft | 20 kts | 54° |
| 2026-05-07 16:30 | 41.52932 | -93.66386 | 915 ft | 5 kts | 57° |
| 2026-05-07 16:30 | 41.52965 | -93.66320 | 917 ft | 9 kts | 54° |
| 2026-05-07 16:30 | 41.53008 | -93.66245 | 919 ft | 12 kts | 53° |
| 2026-05-07 16:30 | 41.53059 | -93.66150 | 923 ft | 12 kts | 53° |
| 2026-05-07 16:31 | 41.53052 | -93.66061 | 927 ft | 9 kts | 121° |
| 2026-05-07 16:31 | 41.53045 | -93.65971 | 929 ft | 9 kts | 72° |
| 2026-05-07 16:31 | 41.53066 | -93.65874 | 932 ft | 11 kts | 84° |
| 2026-05-07 16:31 | 41.53060 | -93.65796 | 935 ft | 7 kts | 119° |
| 2026-05-07 16:32 | 41.53019 | -93.65775 | 935 ft | 7 kts | 230° |
| 2026-05-07 16:32 | 41.52998 | -93.65817 | 934 ft | 0 kts | 257° |